Airfield :
LOGIN :

Register | Disclaimer

   EN    FR    IT 

 










Legend :    VFR   Marginal VFR   IFR   Intensive IFR   Very Intensive IFR
Visi :
Ceiling :
>= 8 km
>= 3000ft
5 to 8 km
1000 to 3000 ft
1500m to 5 km
500 to 1000 ft
800 to 1500m
200 to 500 ft
< 800m
< 200 ft
Symbols :   Thunderstorms  Fog  Heavy snow  Heavy precipitations  Wind > 20 kt
SIGMETs :     Misc.  Thunderstorms  Icing  Turbulence  Mountain Waves  Volcanic Ashes






- Airport Elevation : 265 ft
- IATA code : BJY


LYBT - Batajnica Air Base

CURRENT METAR :
  • 210000Z 12008KT CAVOK 12/05 Q1014 NOSIG

EXPIRED METARs :
  • 202330Z 11009KT CAVOK 12/05 Q1014 NOSIG
  • 202300Z 12008KT CAVOK 12/06 Q1014 NOSIG
  • 202230Z 12008KT CAVOK 12/06 Q1013 NOSIG
  • 202200Z 10006KT CAVOK 11/07 Q1013 NOSIG
  • 202130Z 09008KT CAVOK 11/08 Q1013 NOSIG

TAF TAF LYBT
Valid from the 21 at 00:00 until the 22 at 00:00 UTC


202300Z 2100/2124 10006KT CAVOK TX16/2113Z TN09/2106Z
BECMG 2109/2111 11016KT



MET'MAP, your aeronautical weather chart ! - Copyright ORBIFLY December 2007 - Disclaimer

ORBIFLY MET'MAP TEAM :

Programming & Development : Alexandra Zaïnal
Concept & Development : Baudouin d'Aumeries
Co-Development & Prog : Marc-Olivier Méhu
Technical & hardware support : Manuel Goepfert

Contact : metmap@orbifly.com




SOURCES & CREDITS :

   NOAA